Coyote, New Mexico
Current Conditions -  °F | °C
As of 10:15 AM on Friday 28 Nov 2014 (Local Time) from KLAM Reporting Station
Clear Clear  
Wind Chill: 44°   Ceiling: Unl
Heat Index: 44°   Visibility: 10mi
Dew Point: 20°   Wind: 3mph
Humidity: 39%   Direction: 100°E
Pressure: 30.3"   Gusts: NA
Location:  36.17°N, 106.62°W
Report Text: KLAM 281715Z AUTO 10003KT 10SM CLR 07/M07 A3030 RMK AO2 T00661066
Loading
Personal Weather Stations






























Interactive Weather Map New forecast layout! Learn more

10-Day Weather Forecast

Advertisements
Track Severe Weather on mobile